Lamy, New Mexico
Current Conditions -  °F | °C
As of 12:53 AM on Tuesday 21 Oct 2014 (Local Time) from KSAF Reporting Station
Broken Clouds Broken Clouds  
Wind Chill: 50°   Ceiling: 3000
Heat Index: 50°   Visibility: 10mi
Dew Point: 45°   Wind: 3mph
Humidity: 83%   Direction: 140°SE
Pressure: 30.22"   Gusts: NA
Location:  35.48°N, 105.88°W
Report Text: KSAF 210653Z AUTO 14003KT 10SM BKN030 BKN037 10/07 A3022 RMK AO2 SLP161 T01000072 402280056
Loading
Personal Weather Stations






























Interactive Weather Map New forecast layout! Learn more

10-Day Weather Forecast

Advertisements
Track Severe Weather on mobile